sensor_id;sensor_type;location;lat;lon;timestamp;pressure;altitude;pressure_sealevel;temperature;humidity
11347;BME280;5728;42.722;23.258;2022-12-20T00:02:21;96555.09;;;-0.41;89.45
11347;BME280;5728;42.722;23.258;2022-12-20T00:04:56;96555.28;;;0.11;88.29
11347;BME280;5728;42.722;23.258;2022-12-20T00:07:27;96555.94;;;0.23;88.53
11347;BME280;5728;42.722;23.258;2022-12-20T00:10:06;96523.34;;;0.01;88.07
11347;BME280;5728;42.722;23.258;2022-12-20T00:12:37;96551.09;;;-0.05;87.83
11347;BME280;5728;42.722;23.258;2022-12-20T00:15:07;96554.50;;;0.12;87.42
11347;BME280;5728;42.722;23.258;2022-12-20T00:17:38;96618.34;;;0.13;88.89
11347;BME280;5728;42.722;23.258;2022-12-20T00:20:11;96589.19;;;0.24;88.56
11347;BME280;5728;42.722;23.258;2022-12-20T00:22:45;96562.41;;;0.00;87.60
11347;BME280;5728;42.722;23.258;2022-12-20T00:25:20;96549.50;;;-0.03;87.68
11347;BME280;5728;42.722;23.258;2022-12-20T00:27:53;96552.34;;;0.03;87.64
11347;BME280;5728;42.722;23.258;2022-12-20T00:30:38;96596.69;;;0.37;86.31
11347;BME280;5728;42.722;23.258;2022-12-20T00:33:10;96565.31;;;0.08;86.04
11347;BME280;5728;42.722;23.258;2022-12-20T00:35:47;96555.53;;;0.31;85.34
11347;BME280;5728;42.722;23.258;2022-12-20T00:38:22;96562.88;;;0.09;84.41
11347;BME280;5728;42.722;23.258;2022-12-20T00:41:03;96561.91;;;-0.09;85.13
11347;BME280;5728;42.722;23.258;2022-12-20T00:43:37;96589.28;;;0.42;84.36
11347;BME280;5728;42.722;23.258;2022-12-20T00:46:16;96570.50;;;0.25;83.80
11347;BME280;5728;42.722;23.258;2022-12-20T00:48:51;96587.81;;;0.31;82.93
11347;BME280;5728;42.722;23.258;2022-12-20T00:51:27;96587.50;;;-0.08;84.06
11347;BME280;5728;42.722;23.258;2022-12-20T00:54:04;96565.09;;;-0.13;83.40
11347;BME280;5728;42.722;23.258;2022-12-20T00:56:39;96574.75;;;-0.08;83.54
11347;BME280;5728;42.722;23.258;2022-12-20T00:59:14;96599.94;;;-0.28;83.68
11347;BME280;5728;42.722;23.258;2022-12-20T01:01:54;96630.34;;;-0.31;85.22
11347;BME280;5728;42.722;23.258;2022-12-20T01:04:30;96534.16;;;-0.35;84.08
11347;BME280;5728;42.722;23.258;2022-12-20T01:07:09;96554.44;;;-0.37;83.86
11347;BME280;5728;42.722;23.258;2022-12-20T01:09:40;96567.66;;;-0.44;84.32
11347;BME280;5728;42.722;23.258;2022-12-20T01:12:13;96608.31;;;-0.15;84.43
11347;BME280;5728;42.722;23.258;2022-12-20T01:14:46;96557.22;;;-0.32;84.16
11347;BME280;5728;42.722;23.258;2022-12-20T01:17:17;96546.72;;;-0.38;84.12
11347;BME280;5728;42.722;23.258;2022-12-20T01:19:49;96540.13;;;-0.66;83.82
11347;BME280;5728;42.722;23.258;2022-12-20T01:22:21;96559.13;;;-0.44;84.48
11347;BME280;5728;42.722;23.258;2022-12-20T01:24:51;96533.00;;;-0.56;83.92
11347;BME280;5728;42.722;23.258;2022-12-20T01:27:22;96541.47;;;-0.41;83.90
11347;BME280;5728;42.722;23.258;2022-12-20T01:29:53;96560.91;;;-0.27;84.80
11347;BME280;5728;42.722;23.258;2022-12-20T01:32:24;96536.72;;;-0.35;84.47
11347;BME280;5728;42.722;23.258;2022-12-20T01:34:54;96523.22;;;-0.49;84.45
11347;BME280;5728;42.722;23.258;2022-12-20T01:37:29;96602.88;;;-0.06;84.25
11347;BME280;5728;42.722;23.258;2022-12-20T01:40:03;96541.81;;;-0.35;83.35
11347;BME280;5728;42.722;23.258;2022-12-20T01:42:35;96533.97;;;-0.08;83.72
11347;BME280;5728;42.722;23.258;2022-12-20T01:45:12;96483.16;;;-0.51;82.72
11347;BME280;5728;42.722;23.258;2022-12-20T01:47:49;96477.50;;;-0.62;83.22
11347;BME280;5728;42.722;23.258;2022-12-20T01:50:19;96540.31;;;-0.16;84.07
11347;BME280;5728;42.722;23.258;2022-12-20T01:52:51;96518.16;;;-0.17;83.53
11347;BME280;5728;42.722;23.258;2022-12-20T01:55:26;96467.16;;;-0.49;82.75
11347;BME280;5728;42.722;23.258;2022-12-20T01:57:59;96564.41;;;-0.41;82.86
11347;BME280;5728;42.722;23.258;2022-12-20T02:00:33;96539.09;;;-0.38;83.19
11347;BME280;5728;42.722;23.258;2022-12-20T02:03:08;96527.59;;;-0.46;82.36
11347;BME280;5728;42.722;23.258;2022-12-20T02:05:43;96540.22;;;-0.17;83.43
11347;BME280;5728;42.722;23.258;2022-12-20T02:08:23;96580.59;;;-0.25;82.99
11347;BME280;5728;42.722;23.258;2022-12-20T02:11:04;96508.63;;;-0.51;82.67
11347;BME280;5728;42.722;23.258;2022-12-20T02:13:52;96531.72;;;-0.18;83.04
11347;BME280;5728;42.722;23.258;2022-12-20T02:16:25;96582.47;;;-0.37;83.34
11347;BME280;5728;42.722;23.258;2022-12-20T02:19:03;96500.41;;;-0.93;83.26
11347;BME280;5728;42.722;23.258;2022-12-20T02:21:39;96517.53;;;-0.59;82.69
11347;BME280;5728;42.722;23.258;2022-12-20T02:24:53;96523.16;;;-0.34;83.46
11347;BME280;5728;42.722;23.258;2022-12-20T02:27:47;96504.78;;;-0.29;83.52
11347;BME280;5728;42.722;23.258;2022-12-20T02:30:21;96531.91;;;-0.29;82.67
11347;BME280;5728;42.722;23.258;2022-12-20T02:32:59;96499.13;;;-0.70;83.84
11347;BME280;5728;42.722;23.258;2022-12-20T02:35:33;96504.03;;;-0.42;83.52
11347;BME280;5728;42.722;23.258;2022-12-20T02:38:25;96513.59;;;-0.22;83.25
11347;BME280;5728;42.722;23.258;2022-12-20T02:41:00;96498.78;;;-0.45;82.56
11347;BME280;5728;42.722;23.258;2022-12-20T02:43:33;96506.03;;;-0.68;82.74
11347;BME280;5728;42.722;23.258;2022-12-20T02:46:23;96522.91;;;-0.70;83.96
11347;BME280;5728;42.722;23.258;2022-12-20T02:49:02;96457.41;;;-0.72;83.15
11347;BME280;5728;42.722;23.258;2022-12-20T02:51:37;96504.78;;;-0.90;84.06
11347;BME280;5728;42.722;23.258;2022-12-20T02:54:21;96544.59;;;-0.61;83.21
11347;BME280;5728;42.722;23.258;2022-12-20T02:56:59;96495.19;;;-0.80;84.47
11347;BME280;5728;42.722;23.258;2022-12-20T02:59:37;96478.41;;;-0.45;84.19
11347;BME280;5728;42.722;23.258;2022-12-20T03:02:21;96519.75;;;-0.19;83.75
11347;BME280;5728;42.722;23.258;2022-12-20T03:04:54;96477.47;;;-0.93;84.06
11347;BME280;5728;42.722;23.258;2022-12-20T03:10:05;96506.41;;;-1.07;84.50
11347;BME280;5728;42.722;23.258;2022-12-20T03:12:38;96479.38;;;-0.74;84.73
11347;BME280;5728;42.722;23.258;2022-12-20T03:15:12;96478.31;;;-0.78;84.76
11347;BME280;5728;42.722;23.258;2022-12-20T03:17:47;96435.06;;;-1.08;84.64
11347;BME280;5728;42.722;23.258;2022-12-20T03:20:18;96477.13;;;-0.84;84.42
11347;BME280;5728;42.722;23.258;2022-12-20T03:22:53;96476.94;;;-0.87;83.44
11347;BME280;5728;42.722;23.258;2022-12-20T03:25:27;96493.41;;;-0.97;84.41
11347;BME280;5728;42.722;23.258;2022-12-20T03:28:05;96544.59;;;-0.61;83.59
11347;BME280;5728;42.722;23.258;2022-12-20T03:30:37;96461.34;;;-1.24;83.47
11347;BME280;5728;42.722;23.258;2022-12-20T03:33:10;96458.69;;;-1.11;83.28
11347;BME280;5728;42.722;23.258;2022-12-20T03:35:42;96502.06;;;-0.79;83.61
11347;BME280;5728;42.722;23.258;2022-12-20T03:38:27;96485.41;;;-1.03;83.94
11347;BME280;5728;42.722;23.258;2022-12-20T03:41:04;96472.94;;;-0.68;83.90
11347;BME280;5728;42.722;23.258;2022-12-20T03:43:35;96498.84;;;-0.91;84.29
11347;BME280;5728;42.722;23.258;2022-12-20T03:46:08;96502.41;;;-0.87;84.43
11347;BME280;5728;42.722;23.258;2022-12-20T03:48:54;96445.56;;;-1.02;83.58
11347;BME280;5728;42.722;23.258;2022-12-20T03:51:26;96467.06;;;-0.97;83.31
11347;BME280;5728;42.722;23.258;2022-12-20T03:54:07;96458.31;;;-1.17;84.25
11347;BME280;5728;42.722;23.258;2022-12-20T03:56:42;96474.69;;;-0.97;84.39
11347;BME280;5728;42.722;23.258;2022-12-20T03:59:15;96459.28;;;-1.15;84.69
11347;BME280;5728;42.722;23.258;2022-12-20T04:01:48;96495.94;;;-0.97;84.54
11347;BME280;5728;42.722;23.258;2022-12-20T04:04:21;96416.28;;;-1.41;84.55
11347;BME280;5728;42.722;23.258;2022-12-20T04:06:53;96493.47;;;-0.95;84.61
11347;BME280;5728;42.722;23.258;2022-12-20T04:09:25;96467.38;;;-1.22;84.74
11347;BME280;5728;42.722;23.258;2022-12-20T04:12:09;96524.75;;;-0.67;84.47
11347;BME280;5728;42.722;23.258;2022-12-20T04:14:40;96500.31;;;-0.94;83.47
11347;BME280;5728;42.722;23.258;2022-12-20T04:17:20;96505.47;;;-0.78;84.18
11347;BME280;5728;42.722;23.258;2022-12-20T04:20:02;96493.75;;;-0.91;83.51
11347;BME280;5728;42.722;23.258;2022-12-20T04:22:48;96540.28;;;-0.63;82.68
11347;BME280;5728;42.722;23.258;2022-12-20T04:25:21;96472.44;;;-1.07;83.07
11347;BME280;5728;42.722;23.258;2022-12-20T04:27:57;96453.69;;;-1.24;83.90
11347;BME280;5728;42.722;23.258;2022-12-20T04:30:27;96492.94;;;-0.90;83.90
11347;BME280;5728;42.722;23.258;2022-12-20T04:33:00;96464.38;;;-1.15;84.02
11347;BME280;5728;42.722;23.258;2022-12-20T04:35:32;96475.84;;;-1.07;83.44
11347;BME280;5728;42.722;23.258;2022-12-20T04:38:02;96436.13;;;-1.19;85.27
11347;BME280;5728;42.722;23.258;2022-12-20T04:40:34;96512.53;;;-0.89;84.06
11347;BME280;5728;42.722;23.258;2022-12-20T04:43:02;96419.41;;;-1.45;84.70
11347;BME280;5728;42.722;23.258;2022-12-20T04:45:32;96456.00;;;-1.28;85.10
11347;BME280;5728;42.722;23.258;2022-12-20T04:48:00;96477.88;;;-0.71;84.08
11347;BME280;5728;42.722;23.258;2022-12-20T04:50:27;96481.38;;;-0.69;83.70
11347;BME280;5728;42.722;23.258;2022-12-20T04:52:57;96422.41;;;-1.07;83.85
11347;BME280;5728;42.722;23.258;2022-12-20T04:55:41;96478.00;;;-0.84;83.69
11347;BME280;5728;42.722;23.258;2022-12-20T04:58:09;96469.91;;;-0.77;83.78
11347;BME280;5728;42.722;23.258;2022-12-20T05:00:38;96501.59;;;-0.72;84.18
11347;BME280;5728;42.722;23.258;2022-12-20T05:03:05;96465.16;;;-0.71;84.29
11347;BME280;5728;42.722;23.258;2022-12-20T05:05:32;96469.94;;;-0.60;83.46
11347;BME280;5728;42.722;23.258;2022-12-20T05:08:00;96506.03;;;-0.68;82.92
11347;BME280;5728;42.722;23.258;2022-12-20T05:10:27;96472.97;;;-0.51;83.42
11347;BME280;5728;42.722;23.258;2022-12-20T05:12:54;96481.25;;;-0.55;82.68
11347;BME280;5728;42.722;23.258;2022-12-20T05:15:21;96472.03;;;-0.53;83.27
11347;BME280;5728;42.722;23.258;2022-12-20T05:17:47;96472.91;;;-0.53;82.58
11347;BME280;5728;42.722;23.258;2022-12-20T05:20:15;96480.09;;;-0.77;83.14
11347;BME280;5728;42.722;23.258;2022-12-20T05:22:43;96481.94;;;-1.19;83.33
11347;BME280;5728;42.722;23.258;2022-12-20T05:25:28;96487.44;;;-0.67;84.27
11347;BME280;5728;42.722;23.258;2022-12-20T05:28:12;96483.22;;;-0.66;84.59
11347;BME280;5728;42.722;23.258;2022-12-20T05:30:39;96486.19;;;-0.58;82.83
11347;BME280;5728;42.722;23.258;2022-12-20T05:33:10;96431.66;;;-0.93;84.35
11347;BME280;5728;42.722;23.258;2022-12-20T05:35:43;96426.69;;;-0.75;84.02
11347;BME280;5728;42.722;23.258;2022-12-20T05:38:11;96483.19;;;-0.19;82.11
11347;BME280;5728;42.722;23.258;2022-12-20T05:43:19;96502.09;;;-0.16;81.90
11347;BME280;5728;42.722;23.258;2022-12-20T05:45:55;96476.09;;;-0.09;81.23
11347;BME280;5728;42.722;23.258;2022-12-20T05:48:22;96446.41;;;-0.08;80.75
11347;BME280;5728;42.722;23.258;2022-12-20T05:50:49;96508.22;;;0.04;81.46
11347;BME280;5728;42.722;23.258;2022-12-20T05:53:22;96510.34;;;0.13;79.28
11347;BME280;5728;42.722;23.258;2022-12-20T05:55:59;96458.94;;;0.05;79.20
11347;BME280;5728;42.722;23.258;2022-12-20T05:58:28;96488.09;;;0.26;79.68
11347;BME280;5728;42.722;23.258;2022-12-20T06:00:55;96458.28;;;0.25;79.34
11347;BME280;5728;42.722;23.258;2022-12-20T06:03:23;96462.63;;;0.44;79.13
11347;BME280;5728;42.722;23.258;2022-12-20T06:05:50;96503.59;;;0.81;79.22
11347;BME280;5728;42.722;23.258;2022-12-20T06:08:17;96504.16;;;0.57;78.43
11347;BME280;5728;42.722;23.258;2022-12-20T06:10:47;96495.44;;;0.70;79.14
11347;BME280;5728;42.722;23.258;2022-12-20T06:13:16;96488.69;;;0.54;80.67
11347;BME280;5728;42.722;23.258;2022-12-20T06:15:44;96508.28;;;-0.43;83.20
11347;BME280;5728;42.722;23.258;2022-12-20T06:18:11;96488.44;;;-0.79;83.93
11347;BME280;5728;42.722;23.258;2022-12-20T06:20:38;96491.22;;;-0.75;86.39
11347;BME280;5728;42.722;23.258;2022-12-20T06:23:05;96503.00;;;-0.77;84.21
11347;BME280;5728;42.722;23.258;2022-12-20T06:25:35;96483.50;;;-1.07;84.36
11347;BME280;5728;42.722;23.258;2022-12-20T06:28:02;96485.59;;;-1.00;84.20
11347;BME280;5728;42.722;23.258;2022-12-20T06:30:32;96498.63;;;-0.48;85.94
11347;BME280;5728;42.722;23.258;2022-12-20T06:33:01;96501.16;;;-0.79;85.33
11347;BME280;5728;42.722;23.258;2022-12-20T06:35:28;96514.81;;;-0.63;86.52
11347;BME280;5728;42.722;23.258;2022-12-20T06:37:55;96480.09;;;-1.22;85.03
11347;BME280;5728;42.722;23.258;2022-12-20T06:40:23;96485.34;;;-0.74;85.21
11347;BME280;5728;42.722;23.258;2022-12-20T06:42:50;96496.66;;;-0.38;83.31
11347;BME280;5728;42.722;23.258;2022-12-20T06:45:17;96489.25;;;-0.01;81.89
11347;BME280;5728;42.722;23.258;2022-12-20T06:47:43;96520.31;;;0.08;81.91
11347;BME280;5728;42.722;23.258;2022-12-20T06:50:12;96481.34;;;0.11;81.18
11347;BME280;5728;42.722;23.258;2022-12-20T06:52:38;96481.78;;;0.36;80.49
11347;BME280;5728;42.722;23.258;2022-12-20T06:55:05;96477.94;;;0.44;79.64
11347;BME280;5728;42.722;23.258;2022-12-20T06:57:32;96470.09;;;0.23;79.38
11347;BME280;5728;42.722;23.258;2022-12-20T06:59:59;96469.25;;;0.40;78.39
11347;BME280;5728;42.722;23.258;2022-12-20T07:02:26;96447.47;;;0.13;78.58
11347;BME280;5728;42.722;23.258;2022-12-20T07:04:53;96444.91;;;0.29;79.71
11347;BME280;5728;42.722;23.258;2022-12-20T07:07:21;96480.00;;;0.17;79.95
11347;BME280;5728;42.722;23.258;2022-12-20T07:09:47;96454.22;;;0.29;79.64
11347;BME280;5728;42.722;23.258;2022-12-20T07:12:14;96458.22;;;0.57;80.07
11347;BME280;5728;42.722;23.258;2022-12-20T07:14:42;96472.75;;;0.94;79.15
11347;BME280;5728;42.722;23.258;2022-12-20T07:17:09;96460.56;;;0.88;75.66
11347;BME280;5728;42.722;23.258;2022-12-20T07:19:36;96464.81;;;1.23;76.15
11347;BME280;5728;42.722;23.258;2022-12-20T07:22:03;96455.44;;;1.23;75.33
11347;BME280;5728;42.722;23.258;2022-12-20T07:24:32;96475.97;;;1.07;75.78
11347;BME280;5728;42.722;23.258;2022-12-20T07:26:59;96457.22;;;1.07;77.84
11347;BME280;5728;42.722;23.258;2022-12-20T07:29:26;96467.00;;;1.33;74.60
11347;BME280;5728;42.722;23.258;2022-12-20T07:31:53;96467.16;;;1.55;75.37
11347;BME280;5728;42.722;23.258;2022-12-20T07:34:20;96467.88;;;1.70;75.94
11347;BME280;5728;42.722;23.258;2022-12-20T07:36:47;96478.09;;;1.89;73.95
11347;BME280;5728;42.722;23.258;2022-12-20T07:39:14;96460.56;;;2.37;71.82
11347;BME280;5728;42.722;23.258;2022-12-20T07:41:43;96451.56;;;2.26;73.27
11347;BME280;5728;42.722;23.258;2022-12-20T07:44:09;96470.00;;;2.38;71.74
11347;BME280;5728;42.722;23.258;2022-12-20T07:46:36;96465.03;;;2.03;70.30
11347;BME280;5728;42.722;23.258;2022-12-20T07:49:03;96460.31;;;2.12;72.91
11347;BME280;5728;42.722;23.258;2022-12-20T07:51:34;96459.06;;;2.02;72.85
11347;BME280;5728;42.722;23.258;2022-12-20T07:54:04;96441.75;;;2.16;72.42
11347;BME280;5728;42.722;23.258;2022-12-20T07:56:33;96450.13;;;2.32;73.04
11347;BME280;5728;42.722;23.258;2022-12-20T07:59:04;96445.72;;;2.28;70.90
11347;BME280;5728;42.722;23.258;2022-12-20T08:01:31;96451.53;;;2.45;72.03
11347;BME280;5728;42.722;23.258;2022-12-20T08:04:01;96448.16;;;2.46;70.80
11347;BME280;5728;42.722;23.258;2022-12-20T08:06:30;96438.69;;;2.43;69.49
11347;BME280;5728;42.722;23.258;2022-12-20T08:08:59;96448.50;;;2.53;69.12
11347;BME280;5728;42.722;23.258;2022-12-20T08:11:30;96451.72;;;2.29;69.72
11347;BME280;5728;42.722;23.258;2022-12-20T08:13:58;96450.97;;;2.73;70.46
11347;BME280;5728;42.722;23.258;2022-12-20T08:16:26;96416.19;;;2.98;68.80
11347;BME280;5728;42.722;23.258;2022-12-20T08:18:54;96440.78;;;2.95;69.07
11347;BME280;5728;42.722;23.258;2022-12-20T08:21:21;96451.56;;;2.86;68.46
11347;BME280;5728;42.722;23.258;2022-12-20T08:23:48;96452.44;;;2.87;67.78
11347;BME280;5728;42.722;23.258;2022-12-20T08:26:16;96419.97;;;3.30;67.55
11347;BME280;5728;42.722;23.258;2022-12-20T08:28:43;96428.41;;;3.05;67.54
11347;BME280;5728;42.722;23.258;2022-12-20T08:31:10;96433.47;;;3.25;66.02
11347;BME280;5728;42.722;23.258;2022-12-20T08:33:39;96429.28;;;3.06;66.97
11347;BME280;5728;42.722;23.258;2022-12-20T08:36:07;96434.25;;;3.46;66.32
11347;BME280;5728;42.722;23.258;2022-12-20T08:38:35;96435.25;;;3.49;64.47
11347;BME280;5728;42.722;23.258;2022-12-20T08:41:02;96426.63;;;4.17;63.51
11347;BME280;5728;42.722;23.258;2022-12-20T08:43:29;96426.94;;;4.49;62.50
11347;BME280;5728;42.722;23.258;2022-12-20T08:45:56;96423.16;;;4.15;62.53
11347;BME280;5728;42.722;23.258;2022-12-20T08:48:23;96427.56;;;4.42;64.15
11347;BME280;5728;42.722;23.258;2022-12-20T08:50:55;96437.41;;;4.07;61.75
11347;BME280;5728;42.722;23.258;2022-12-20T08:53:22;96425.94;;;4.46;61.50
11347;BME280;5728;42.722;23.258;2022-12-20T08:55:49;96431.13;;;3.99;59.59
11347;BME280;5728;42.722;23.258;2022-12-20T08:58:16;96429.13;;;3.68;60.74
11347;BME280;5728;42.722;23.258;2022-12-20T09:00:45;96426.84;;;3.75;61.52
11347;BME280;5728;42.722;23.258;2022-12-20T09:03:12;96432.97;;;4.26;60.37
11347;BME280;5728;42.722;23.258;2022-12-20T09:05:43;96419.00;;;4.69;59.09
11347;BME280;5728;42.722;23.258;2022-12-20T09:08:13;96407.59;;;4.86;57.72
11347;BME280;5728;42.722;23.258;2022-12-20T09:10:40;96404.84;;;4.55;57.21
11347;BME280;5728;42.722;23.258;2022-12-20T09:13:07;96404.25;;;5.15;58.50
11347;BME280;5728;42.722;23.258;2022-12-20T09:15:34;96395.31;;;5.04;57.94
11347;BME280;5728;42.722;23.258;2022-12-20T09:18:01;96397.31;;;5.12;62.22
11347;BME280;5728;42.722;23.258;2022-12-20T09:20:28;96395.53;;;5.10;56.63
11347;BME280;5728;42.722;23.258;2022-12-20T09:22:57;96387.31;;;6.08;57.14
11347;BME280;5728;42.722;23.258;2022-12-20T09:25:25;96385.44;;;6.33;60.65
11347;BME280;5728;42.722;23.258;2022-12-20T09:27:52;96374.13;;;5.69;54.22
11347;BME280;5728;42.722;23.258;2022-12-20T09:30:20;96382.91;;;6.04;55.74
11347;BME280;5728;42.722;23.258;2022-12-20T09:32:47;96357.78;;;5.95;53.36
11347;BME280;5728;42.722;23.258;2022-12-20T09:35:14;96392.66;;;6.15;55.14
11347;BME280;5728;42.722;23.258;2022-12-20T09:37:41;96361.66;;;6.11;52.79
11347;BME280;5728;42.722;23.258;2022-12-20T09:40:13;96371.34;;;5.90;52.01
11347;BME280;5728;42.722;23.258;2022-12-20T09:42:44;96364.03;;;6.36;54.40
11347;BME280;5728;42.722;23.258;2022-12-20T09:45:19;96364.81;;;6.66;59.50
11347;BME280;5728;42.722;23.258;2022-12-20T09:47:48;96364.31;;;7.17;54.88
11347;BME280;5728;42.722;23.258;2022-12-20T09:50:16;96351.75;;;7.32;50.57
11347;BME280;5728;42.722;23.258;2022-12-20T09:52:54;96333.81;;;7.78;51.11
11347;BME280;5728;42.722;23.258;2022-12-20T09:55:32;96340.19;;;7.15;49.13
11347;BME280;5728;42.722;23.258;2022-12-20T09:58:16;96337.34;;;7.43;49.44
11347;BME280;5728;42.722;23.258;2022-12-20T10:00:48;96338.78;;;7.29;49.24
11347;BME280;5728;42.722;23.258;2022-12-20T10:03:19;96332.97;;;7.37;48.05
11347;BME280;5728;42.722;23.258;2022-12-20T10:05:52;96325.19;;;6.98;47.97
11347;BME280;5728;42.722;23.258;2022-12-20T10:08:36;96304.84;;;7.51;48.26
11347;BME280;5728;42.722;23.258;2022-12-20T10:11:10;96301.69;;;7.64;50.96
11347;BME280;5728;42.722;23.258;2022-12-20T10:13:53;96301.38;;;7.92;50.21
11347;BME280;5728;42.722;23.258;2022-12-20T10:16:38;96298.31;;;7.68;49.17
11347;BME280;5728;42.722;23.258;2022-12-20T10:19:21;96291.84;;;7.06;47.50
11347;BME280;5728;42.722;23.258;2022-12-20T10:21:56;96279.50;;;6.93;54.07
11347;BME280;5728;42.722;23.258;2022-12-20T10:24:28;96280.34;;;7.31;49.77
11347;BME280;5728;42.722;23.258;2022-12-20T10:26:57;96264.06;;;7.75;47.89
11347;BME280;5728;42.722;23.258;2022-12-20T10:29:31;96258.53;;;8.50;49.23
11347;BME280;5728;42.722;23.258;2022-12-20T10:31:59;96246.44;;;8.49;45.38
11347;BME280;5728;42.722;23.258;2022-12-20T10:34:26;96246.22;;;8.37;45.40
11347;BME280;5728;42.722;23.258;2022-12-20T10:37:10;96247.63;;;8.18;47.07
11347;BME280;5728;42.722;23.258;2022-12-20T10:39:40;96251.16;;;6.93;46.51
11347;BME280;5728;42.722;23.258;2022-12-20T10:42:23;96231.13;;;6.81;49.89
11347;BME280;5728;42.722;23.258;2022-12-20T10:44:54;96229.47;;;7.25;48.00
11347;BME280;5728;42.722;23.258;2022-12-20T10:47:31;96224.41;;;7.73;47.22
11347;BME280;5728;42.722;23.258;2022-12-20T10:50:13;96221.91;;;7.33;50.31
11347;BME280;5728;42.722;23.258;2022-12-20T10:52:44;96224.88;;;7.09;46.49
11347;BME280;5728;42.722;23.258;2022-12-20T10:55:35;96222.06;;;6.24;46.74
11347;BME280;5728;42.722;23.258;2022-12-20T10:58:04;96208.38;;;7.02;50.42
11347;BME280;5728;42.722;23.258;2022-12-20T11:00:33;96216.81;;;7.36;46.96
11347;BME280;5728;42.722;23.258;2022-12-20T11:03:11;96215.53;;;7.59;46.92
11347;BME280;5728;42.722;23.258;2022-12-20T11:05:52;96210.66;;;7.74;45.37
11347;BME280;5728;42.722;23.258;2022-12-20T11:08:22;96203.66;;;7.67;46.83
11347;BME280;5728;42.722;23.258;2022-12-20T11:11:09;96187.97;;;8.04;44.39
11347;BME280;5728;42.722;23.258;2022-12-20T11:13:37;96196.47;;;8.50;45.67
11347;BME280;5728;42.722;23.258;2022-12-20T11:16:24;96195.16;;;8.76;42.60
11347;BME280;5728;42.722;23.258;2022-12-20T11:18:59;96186.31;;;8.08;42.87
11347;BME280;5728;42.722;23.258;2022-12-20T11:21:35;96193.13;;;7.55;44.21
11347;BME280;5728;42.722;23.258;2022-12-20T11:24:10;96187.75;;;7.92;44.51
11347;BME280;5728;42.722;23.258;2022-12-20T11:26:54;96182.94;;;7.19;44.61
11347;BME280;5728;42.722;23.258;2022-12-20T11:32:42;96176.75;;;8.02;44.65
11347;BME280;5728;42.722;23.258;2022-12-20T11:35:17;96157.31;;;8.84;48.34
11347;BME280;5728;42.722;23.258;2022-12-20T11:37:51;96163.69;;;9.09;45.70
11347;BME280;5728;42.722;23.258;2022-12-20T11:40:28;96167.22;;;9.14;43.79
11347;BME280;5728;42.722;23.258;2022-12-20T11:43:06;96163.41;;;8.89;41.34
11347;BME280;5728;42.722;23.258;2022-12-20T11:45:44;96151.19;;;8.76;41.21
11347;BME280;5728;42.722;23.258;2022-12-20T11:48:34;96154.19;;;8.45;41.29
11347;BME280;5728;42.722;23.258;2022-12-20T11:51:11;96152.63;;;8.56;40.87
11347;BME280;5728;42.722;23.258;2022-12-20T11:53:49;96153.69;;;8.70;43.82
11347;BME280;5728;42.722;23.258;2022-12-20T11:56:20;96143.78;;;9.03;42.78
11347;BME280;5728;42.722;23.258;2022-12-20T11:58:51;96140.97;;;8.86;41.71
11347;BME280;5728;42.722;23.258;2022-12-20T12:01:23;96135.88;;;8.92;42.21
11347;BME280;5728;42.722;23.258;2022-12-20T12:04:05;96145.72;;;9.22;40.81
11347;BME280;5728;42.722;23.258;2022-12-20T12:06:37;96139.69;;;9.20;40.79
11347;BME280;5728;42.722;23.258;2022-12-20T12:09:14;96136.81;;;8.96;40.19
11347;BME280;5728;42.722;23.258;2022-12-20T12:11:46;96130.25;;;9.24;41.16
11347;BME280;5728;42.722;23.258;2022-12-20T12:14:25;96143.00;;;9.12;39.91
11347;BME280;5728;42.722;23.258;2022-12-20T12:16:56;96100.44;;;9.65;40.42
11347;BME280;5728;42.722;23.258;2022-12-20T12:19:28;96123.00;;;8.95;40.09
11347;BME280;5728;42.722;23.258;2022-12-20T12:22:00;96127.91;;;9.49;41.50
11347;BME280;5728;42.722;23.258;2022-12-20T12:24:33;96123.75;;;9.63;39.76
11347;BME280;5728;42.722;23.258;2022-12-20T12:27:03;96124.03;;;9.94;39.45
11347;BME280;5728;42.722;23.258;2022-12-20T12:29:32;96122.69;;;10.38;39.81
11347;BME280;5728;42.722;23.258;2022-12-20T12:32:05;96122.06;;;8.92;38.55
11347;BME280;5728;42.722;23.258;2022-12-20T12:34:45;96110.25;;;8.45;43.34
11347;BME280;5728;42.722;23.258;2022-12-20T12:37:41;96117.22;;;9.19;40.92
11347;BME280;5728;42.722;23.258;2022-12-20T12:40:42;96104.81;;;7.72;42.21
11347;BME280;5728;42.722;23.258;2022-12-20T12:43:36;96111.69;;;8.87;42.09
11347;BME280;5728;42.722;23.258;2022-12-20T12:46:10;96107.25;;;8.79;40.52
11347;BME280;5728;42.722;23.258;2022-12-20T12:48:40;96109.38;;;9.12;40.15
11347;BME280;5728;42.722;23.258;2022-12-20T12:51:13;96112.16;;;9.28;39.89
11347;BME280;5728;42.722;23.258;2022-12-20T12:53:42;96100.75;;;9.98;39.96
11347;BME280;5728;42.722;23.258;2022-12-20T12:56:35;96113.16;;;10.34;38.07
11347;BME280;5728;42.722;23.258;2022-12-20T13:02:48;96094.03;;;10.20;36.51
11347;BME280;5728;42.722;23.258;2022-12-20T13:05:33;96114.34;;;8.93;42.36
11347;BME280;5728;42.722;23.258;2022-12-20T13:08:03;96098.91;;;7.81;40.70
11347;BME280;5728;42.722;23.258;2022-12-20T13:11:11;96080.13;;;6.51;43.50
11347;BME280;5728;42.722;23.258;2022-12-20T13:13:38;96080.50;;;7.14;42.37
11347;BME280;5728;42.722;23.258;2022-12-20T13:16:11;96077.63;;;6.97;41.95
11347;BME280;5728;42.722;23.258;2022-12-20T13:18:56;96069.75;;;6.48;42.87
11347;BME280;5728;42.722;23.258;2022-12-20T13:21:36;96086.78;;;6.81;42.19
11347;BME280;5728;42.722;23.258;2022-12-20T13:27:28;96080.09;;;6.49;43.96
11347;BME280;5728;42.722;23.258;2022-12-20T13:29:58;96077.41;;;6.44;45.62
11347;BME280;5728;42.722;23.258;2022-12-20T13:33:02;96067.84;;;6.79;44.37
11347;BME280;5728;42.722;23.258;2022-12-20T13:35:53;96060.31;;;6.48;43.91
11347;BME280;5728;42.722;23.258;2022-12-20T13:38:41;96068.97;;;6.95;43.66
11347;BME280;5728;42.722;23.258;2022-12-20T13:41:23;96068.69;;;7.25;42.88
11347;BME280;5728;42.722;23.258;2022-12-20T13:43:56;96065.72;;;7.53;45.70
11347;BME280;5728;42.722;23.258;2022-12-20T13:46:29;96043.88;;;7.33;43.27
11347;BME280;5728;42.722;23.258;2022-12-20T13:49:00;96066.59;;;7.52;42.92
11347;BME280;5728;42.722;23.258;2022-12-20T13:51:29;96066.16;;;7.28;43.67
11347;BME280;5728;42.722;23.258;2022-12-20T13:53:58;96058.94;;;7.58;42.63
11347;BME280;5728;42.722;23.258;2022-12-20T13:56:36;96059.47;;;6.92;42.51